createdAt,value
2022-12-15T00:04:31.206Z,80.3
2022-12-15T00:09:31.321Z,80.2
2022-12-15T00:14:31.882Z,80.3
2022-12-15T00:19:31.193Z,80.4
2022-12-15T00:24:31.975Z,80.2
2022-12-15T00:29:31.840Z,80.2
2022-12-15T00:34:31.902Z,80.2
2022-12-15T00:39:32.016Z,80.3
2022-12-15T00:44:31.121Z,80.4
2022-12-15T00:49:31.152Z,80.4
2022-12-15T00:54:31.426Z,80.4
2022-12-15T00:59:31.079Z,80.5
2022-12-15T01:04:31.249Z,80.5
2022-12-15T01:09:32.233Z,80.6
2022-12-15T01:14:31.058Z,80.5
2022-12-15T01:19:31.070Z,80.5
2022-12-15T01:24:31.199Z,80.6
2022-12-15T01:29:31.031Z,80.7
2022-12-15T01:34:31.004Z,80.8
2022-12-15T01:39:31.038Z,80.8
2022-12-15T01:44:31.060Z,80.8
2022-12-15T01:49:31.192Z,80.8
2022-12-15T01:54:31.005Z,80.9
2022-12-15T01:59:30.983Z,80.9
2022-12-15T02:04:31.250Z,80.8
2022-12-15T02:09:31.053Z,80.9
2022-12-15T02:14:30.930Z,80.9
2022-12-15T02:19:31.105Z,80.9
2022-12-15T02:24:31.045Z,80.9
2022-12-15T02:29:30.967Z,81.0
2022-12-15T02:34:30.931Z,81.1
2022-12-15T02:39:30.932Z,81.3
2022-12-15T02:44:30.935Z,81.1
2022-12-15T02:49:31.231Z,81.0
2022-12-15T02:54:31.110Z,81.0
2022-12-15T02:59:30.852Z,81.0
2022-12-15T03:04:31.010Z,81.1
2022-12-15T03:09:30.863Z,81.1
2022-12-15T03:14:30.811Z,81.1
2022-12-15T03:19:31.726Z,81.2
2022-12-15T03:24:30.853Z,81.3
2022-12-15T03:29:31.570Z,81.2
2022-12-15T03:34:31.473Z,81.3
2022-12-15T03:39:31.511Z,81.5
2022-12-15T03:44:31.523Z,81.5
2022-12-15T03:49:31.581Z,81.4
2022-12-15T03:54:31.430Z,81.5
2022-12-15T03:59:31.525Z,81.3
2022-12-15T04:04:30.736Z,81.2
2022-12-15T04:09:31.507Z,81.3
2022-12-15T04:14:31.479Z,81.3
2022-12-15T04:19:31.643Z,81.3
2022-12-15T04:24:30.735Z,81.4
2022-12-15T04:29:30.742Z,81.5
2022-12-15T04:34:30.674Z,81.2
2022-12-15T04:39:30.888Z,81.3
2022-12-15T04:44:30.680Z,81.1
2022-12-15T04:49:30.884Z,81.2
2022-12-15T04:54:30.673Z,81.3
2022-12-15T04:59:30.792Z,81.4
2022-12-15T05:04:30.739Z,81.1
2022-12-15T05:09:31.494Z,81.3
2022-12-15T05:14:31.402Z,81.6
2022-12-15T05:19:31.351Z,81.6
2022-12-15T05:24:30.659Z,81.7
2022-12-15T05:29:30.575Z,81.5
2022-12-15T05:34:30.600Z,81.7
2022-12-15T05:39:31.292Z,81.6
2022-12-15T05:44:31.331Z,81.5
2022-12-15T05:49:30.587Z,81.4
2022-12-15T05:54:30.620Z,81.5
2022-12-15T05:59:30.704Z,81.3
2022-12-15T06:04:31.448Z,81.4
2022-12-15T06:09:30.552Z,81.0
2022-12-15T06:14:30.486Z,81.0
2022-12-15T06:19:30.685Z,81.2
2022-12-15T06:24:30.528Z,80.7
2022-12-15T06:29:30.548Z,80.8
2022-12-15T06:34:30.648Z,81.2
2022-12-15T06:39:30.459Z,81.2
2022-12-15T06:44:30.469Z,81.0
2022-12-15T06:49:30.638Z,80.9
2022-12-15T06:54:31.271Z,80.9
2022-12-15T06:59:30.534Z,80.6
2022-12-15T07:04:31.321Z,81.0
2022-12-15T07:09:31.328Z,81.1
2022-12-15T07:14:33.277Z,81.0
2022-12-15T07:19:31.087Z,80.8
2022-12-15T07:24:31.128Z,80.9
2022-12-15T07:29:31.405Z,80.9
2022-12-15T07:34:30.450Z,81.1
2022-12-15T07:39:30.539Z,81.0
2022-12-15T07:44:32.013Z,80.8
2022-12-15T07:49:31.043Z,80.9
2022-12-15T07:54:30.351Z,81.2
2022-12-15T07:59:30.338Z,81.0
2022-12-15T08:04:32.448Z,80.7
2022-12-15T08:09:30.310Z,81.1
2022-12-15T08:14:30.314Z,81.0
2022-12-15T08:19:30.505Z,80.8
2022-12-15T08:24:30.311Z,80.6
2022-12-15T08:29:50.700Z,80.9
2022-12-15T08:34:30.608Z,80.7
2022-12-15T08:39:30.315Z,80.5
2022-12-15T08:44:30.256Z,81.1
2022-12-15T08:49:30.625Z,81.0
2022-12-15T08:54:30.643Z,80.7
2022-12-15T08:59:30.292Z,80.8
2022-12-15T09:04:30.278Z,80.7
2022-12-15T09:09:30.229Z,80.9
2022-12-15T09:14:30.212Z,80.7
2022-12-15T09:19:30.436Z,80.5
2022-12-15T09:24:35.013Z,80.1
2022-12-15T09:29:30.221Z,80.2
2022-12-15T09:34:30.368Z,80.5
2022-12-15T09:39:30.253Z,80.2
2022-12-15T09:44:30.185Z,80.4
2022-12-15T09:49:30.335Z,80.4
2022-12-15T09:54:30.304Z,80.5
2022-12-15T09:59:30.931Z,80.3
2022-12-15T10:04:30.917Z,80.3
2022-12-15T10:09:30.113Z,80.6
2022-12-15T10:14:31.231Z,80.4
2022-12-15T10:19:30.877Z,80.4
2022-12-15T10:29:30.176Z,80.1
2022-12-15T10:34:30.278Z,79.9
2022-12-15T10:39:30.246Z,79.7
2022-12-15T10:44:32.430Z,80.0
2022-12-15T10:49:30.918Z,80.1
2022-12-15T10:54:30.086Z,80.2
2022-12-15T10:59:31.007Z,80.4
2022-12-15T11:09:30.144Z,80.2
2022-12-15T11:14:29.967Z,80.0
2022-12-15T11:19:30.027Z,80.0
2022-12-15T11:24:30.187Z,80.3
2022-12-15T11:29:30.084Z,80.5
2022-12-15T11:34:29.945Z,80.5
2022-12-15T11:39:29.936Z,80.1
2022-12-15T11:44:30.181Z,80.1
2022-12-15T11:49:29.977Z,80.2
2022-12-15T11:54:29.918Z,80.0
2022-12-15T11:59:30.187Z,79.6
2022-12-15T12:04:29.858Z,79.9
2022-12-15T12:09:29.925Z,79.8
2022-12-15T12:14:29.907Z,80.2
2022-12-15T12:19:30.005Z,80.3
2022-12-15T12:24:30.123Z,80.6
2022-12-15T12:29:29.847Z,80.6
2022-12-15T12:34:29.923Z,80.1
2022-12-15T12:39:30.349Z,79.7
2022-12-15T12:44:29.849Z,79.7
2022-12-15T12:49:30.072Z,79.7
2022-12-15T12:54:29.997Z,79.6
2022-12-15T12:59:29.835Z,79.7
2022-12-15T13:09:31.042Z,79.8
2022-12-15T13:14:29.977Z,79.8
2022-12-15T13:19:30.985Z,79.5
2022-12-15T13:24:40.404Z,79.7
2022-12-15T13:29:29.761Z,79.8
2022-12-15T13:34:30.070Z,79.9
2022-12-15T13:39:29.828Z,79.9
2022-12-15T13:44:29.823Z,80.0
2022-12-15T13:49:30.441Z,80.1
2022-12-15T13:54:30.058Z,80.2
2022-12-15T13:59:33.843Z,80.1
2022-12-15T14:04:29.924Z,79.7
2022-12-15T14:09:30.248Z,79.7
2022-12-15T14:14:30.344Z,80.1
2022-12-15T14:19:32.133Z,80.0
2022-12-15T14:24:39.491Z,80.0
2022-12-15T14:29:30.812Z,79.8
2022-12-15T14:34:30.161Z,79.8
2022-12-15T14:39:29.637Z,79.8
2022-12-15T14:49:32.348Z,79.9
2022-12-15T14:54:29.569Z,79.9
2022-12-15T14:59:30.182Z,79.6
2022-12-15T15:03:03.892Z,80.1
2022-12-15T15:04:29.558Z,78.9
2022-12-15T15:09:29.544Z,79.5
2022-12-15T15:14:30.349Z,79.6
2022-12-15T15:19:31.378Z,79.8
2022-12-15T15:24:29.561Z,79.4
2022-12-15T15:29:29.799Z,79.8
2022-12-15T15:34:30.302Z,79.6
2022-12-15T15:39:29.467Z,79.8
2022-12-15T15:44:29.488Z,80.0
2022-12-15T15:49:32.165Z,80.0
2022-12-15T15:54:29.659Z,80.0
2022-12-15T15:59:29.512Z,79.9
2022-12-15T16:04:29.519Z,79.8
2022-12-15T16:09:29.679Z,79.7
2022-12-15T16:14:29.471Z,79.8
2022-12-15T16:19:31.659Z,79.5
2022-12-15T16:24:29.571Z,79.3
2022-12-15T16:29:29.473Z,79.1
2022-12-15T16:34:29.385Z,79.0
2022-12-15T16:39:29.591Z,78.9
2022-12-15T16:44:29.600Z,79.1
2022-12-15T16:49:33.851Z,79.3
2022-12-15T16:54:30.829Z,79.7
2022-12-15T16:59:35.432Z,79.5
2022-12-15T17:04:30.140Z,79.4
2022-12-15T17:09:30.115Z,79.5
2022-12-15T17:14:30.127Z,79.5
2022-12-15T17:19:29.979Z,79.6
2022-12-15T17:24:29.273Z,79.6
2022-12-15T17:29:30.038Z,79.6
2022-12-15T17:34:30.162Z,79.7
2022-12-15T17:39:29.983Z,79.9
2022-12-15T17:44:35.613Z,79.9
2022-12-15T17:49:35.161Z,79.6
2022-12-15T17:54:29.955Z,79.6
2022-12-15T17:59:34.706Z,79.8
2022-12-15T18:04:30.007Z,79.7
2022-12-15T18:09:29.229Z,79.6
2022-12-15T18:14:30.349Z,79.6
2022-12-15T18:24:29.437Z,79.7
2022-12-15T18:29:30.342Z,79.8
2022-12-15T18:34:30.182Z,79.9
2022-12-15T18:39:30.388Z,79.7
2022-12-15T18:44:29.269Z,79.5
2022-12-15T18:49:29.394Z,79.7
2022-12-15T18:54:29.388Z,79.8
2022-12-15T18:59:29.406Z,79.6
2022-12-15T19:04:29.935Z,79.9
2022-12-15T19:09:29.633Z,80.0
2022-12-15T19:14:29.210Z,79.9
2022-12-15T19:19:29.456Z,79.7
2022-12-15T19:24:30.670Z,79.5
2022-12-15T19:29:29.191Z,79.7
2022-12-15T19:34:29.217Z,79.7
2022-12-15T19:39:31.624Z,79.7
2022-12-15T19:44:30.301Z,79.9
2022-12-15T19:49:30.411Z,79.7
2022-12-15T19:54:41.350Z,79.8
2022-12-15T19:59:29.638Z,79.9
2022-12-15T20:04:29.674Z,79.8
2022-12-15T20:09:29.378Z,79.9
2022-12-15T20:14:31.493Z,80.0
2022-12-15T20:24:29.131Z,80.0
2022-12-15T20:29:30.148Z,80.1
2022-12-15T20:34:29.937Z,80.1
2022-12-15T20:39:28.952Z,80.2
2022-12-15T20:44:28.973Z,80.5
2022-12-15T20:54:30.050Z,80.3
2022-12-15T20:59:29.554Z,80.0
2022-12-15T21:04:29.625Z,80.3
2022-12-15T21:09:29.711Z,80.2
2022-12-15T21:14:29.081Z,80.0
2022-12-15T21:19:29.372Z,79.9
2022-12-15T21:24:29.362Z,79.9
2022-12-15T21:29:29.224Z,80.1
2022-12-15T21:34:29.013Z,79.9
2022-12-15T21:39:28.908Z,79.8
2022-12-15T21:44:29.090Z,79.8
2022-12-15T21:49:29.248Z,80.0
2022-12-15T21:54:31.156Z,80.0
2022-12-15T21:59:28.891Z,80.2
2022-12-15T22:04:28.792Z,80.1
2022-12-15T22:09:28.906Z,80.3
2022-12-15T22:14:28.991Z,80.2
2022-12-15T22:19:28.809Z,80.2
2022-12-15T22:24:28.712Z,80.4
2022-12-15T22:29:29.002Z,80.3
2022-12-15T22:34:28.704Z,80.1
2022-12-15T22:39:28.777Z,80.1
2022-12-15T22:44:28.955Z,80.2
2022-12-15T22:49:28.750Z,80.1
2022-12-15T22:54:29.003Z,80.3
2022-12-15T22:59:29.235Z,80.1
2022-12-15T23:04:28.711Z,80.2
2022-12-15T23:09:28.651Z,80.1
2022-12-15T23:14:28.722Z,80.0
2022-12-15T23:19:28.663Z,80.0
2022-12-15T23:24:28.876Z,80.2
2022-12-15T23:29:28.660Z,80.0
2022-12-15T23:34:28.605Z,80.0
2022-12-15T23:39:28.760Z,80.2
2022-12-15T23:44:28.607Z,80.3
2022-12-15T23:49:28.615Z,80.3
2022-12-15T23:54:28.738Z,80.4
2022-12-15T23:59:28.599Z,80.4
